createdAt,value
2018-09-16T00:01:21.454Z,10.13
2018-09-16T00:03:50.682Z,9.13
2018-09-16T00:06:19.937Z,9.03
2018-09-16T00:08:49.154Z,9.60
2018-09-16T00:11:18.395Z,9.40
2018-09-16T00:13:47.671Z,8.80
2018-09-16T00:16:16.913Z,8.27
2018-09-16T00:18:46.151Z,7.97
2018-09-16T00:21:15.407Z,8.70
2018-09-16T00:23:44.620Z,7.93
2018-09-16T00:26:13.844Z,8.67
2018-09-16T00:28:43.079Z,8.87
2018-09-16T00:31:12.299Z,9.60
2018-09-16T00:33:41.514Z,10.00
2018-09-16T00:36:10.748Z,10.67
2018-09-16T00:38:40.998Z,10.70
2018-09-16T00:41:10.230Z,10.67
2018-09-16T00:43:39.474Z,10.65
2018-09-16T00:46:08.734Z,9.57
2018-09-16T00:48:39.199Z,10.60
2018-09-16T00:51:08.451Z,10.00
2018-09-16T00:53:37.657Z,10.77
2018-09-16T00:56:07.202Z,10.87
2018-09-16T00:58:36.470Z,11.27
2018-09-16T01:01:05.726Z,12.28
2018-09-16T01:03:34.948Z,12.20
2018-09-16T01:06:09.270Z,9.48
2018-09-16T01:08:38.487Z,8.57
2018-09-16T01:11:07.720Z,8.93
2018-09-16T01:13:36.990Z,9.67
2018-09-16T01:16:06.236Z,9.17
2018-09-16T01:18:35.462Z,9.80
2018-09-16T01:21:04.702Z,9.43
2018-09-16T01:23:33.938Z,9.87
2018-09-16T01:26:03.158Z,9.77
2018-09-16T01:28:32.384Z,9.33
2018-09-16T01:31:01.626Z,9.30
2018-09-16T01:33:30.844Z,8.83
2018-09-16T01:36:00.079Z,9.33
2018-09-16T01:38:33.374Z,8.47
2018-09-16T01:41:02.602Z,8.80
2018-09-16T01:43:31.833Z,9.27
2018-09-16T01:46:01.058Z,9.23
2018-09-16T01:48:30.282Z,9.30
2018-09-16T01:50:59.502Z,8.80
2018-09-16T01:53:28.742Z,9.90
2018-09-16T01:55:57.966Z,11.47
2018-09-16T01:58:27.199Z,11.90
2018-09-16T02:00:56.398Z,13.17
2018-09-16T02:03:25.650Z,14.50
2018-09-16T02:05:55.405Z,12.80
2018-09-16T02:08:25.625Z,12.53
2018-09-16T02:10:55.070Z,12.90
2018-09-16T02:13:24.301Z,11.50
2018-09-16T02:15:53.521Z,11.03
2018-09-16T02:18:22.752Z,11.03
2018-09-16T02:20:51.955Z,11.27
2018-09-16T02:23:21.196Z,10.07
2018-09-16T02:25:50.411Z,9.70
2018-09-16T02:28:19.655Z,8.80
2018-09-16T02:30:49.088Z,8.93
2018-09-16T02:33:18.286Z,8.70
2018-09-16T02:35:47.511Z,8.93
2018-09-16T02:38:16.755Z,8.13
2018-09-16T02:40:45.973Z,8.23
2018-09-16T02:43:15.215Z,9.20
2018-09-16T02:45:44.446Z,7.47
2018-09-16T02:48:13.663Z,7.83
2018-09-16T02:50:42.899Z,8.57
2018-09-16T02:53:12.138Z,8.27
2018-09-16T02:55:41.338Z,8.83
2018-09-16T02:58:10.554Z,8.43
2018-09-16T03:00:39.862Z,7.90
2018-09-16T03:03:09.040Z,7.67
2018-09-16T03:05:43.411Z,7.43
2018-09-16T03:08:12.612Z,7.20
2018-09-16T03:10:41.830Z,7.30
2018-09-16T03:13:11.050Z,7.97
2018-09-16T03:15:40.577Z,7.95
2018-09-16T03:18:11.035Z,7.40
2018-09-16T03:20:40.246Z,7.30
2018-09-16T03:23:09.458Z,7.90
2018-09-16T03:25:38.705Z,7.70
2018-09-16T03:28:07.942Z,8.40
2018-09-16T03:30:37.159Z,7.73
2018-09-16T03:33:06.785Z,7.73
2018-09-16T03:35:36.019Z,8.10
2018-09-16T03:38:05.241Z,7.77
2018-09-16T03:40:34.473Z,8.23
2018-09-16T03:43:03.702Z,8.93
2018-09-16T03:45:39.686Z,8.67
2018-09-16T03:48:08.899Z,8.50
2018-09-16T03:50:38.146Z,8.77
2018-09-16T03:53:07.355Z,10.43
2018-09-16T03:55:36.596Z,10.03
2018-09-16T03:58:05.834Z,10.73
2018-09-16T04:00:35.080Z,10.67
2018-09-16T04:03:04.304Z,9.65
2018-09-16T04:05:33.531Z,10.23
2018-09-16T04:08:02.769Z,10.07
2018-09-16T04:10:32.028Z,10.00
2018-09-16T04:13:01.264Z,10.80
2018-09-16T04:15:30.496Z,9.87
2018-09-16T04:17:59.735Z,9.93
2018-09-16T04:20:29.003Z,9.27
2018-09-16T04:22:58.280Z,8.50
2018-09-16T04:25:27.548Z,8.03
2018-09-16T04:27:56.820Z,7.70
2018-09-16T04:30:26.034Z,8.33
2018-09-16T04:32:55.258Z,9.10
2018-09-16T04:35:24.495Z,9.30
2018-09-16T04:37:53.714Z,9.40
2018-09-16T04:40:22.946Z,9.50
2018-09-16T04:42:52.175Z,9.20
2018-09-16T04:45:22.654Z,8.83
2018-09-16T04:47:52.059Z,8.60
2018-09-16T04:50:21.286Z,8.40
2018-09-16T04:52:50.506Z,8.33
2018-09-16T04:55:19.714Z,9.13
2018-09-16T04:57:48.935Z,9.15
2018-09-16T05:00:18.171Z,9.70
2018-09-16T05:02:47.386Z,8.58
2018-09-16T05:05:16.625Z,9.30
2018-09-16T05:07:45.878Z,9.07
2018-09-16T05:10:15.110Z,9.30
2018-09-16T05:12:44.323Z,8.73
2018-09-16T05:15:13.562Z,9.03
2018-09-16T05:17:42.790Z,8.47
2018-09-16T05:20:11.989Z,8.33
2018-09-16T05:22:41.310Z,8.30
2018-09-16T05:25:10.437Z,9.07
2018-09-16T05:27:39.666Z,8.93
2018-09-16T05:30:09.279Z,8.50
2018-09-16T05:32:38.511Z,8.30
2018-09-16T05:35:07.733Z,8.85
2018-09-16T05:37:36.964Z,8.60
2018-09-16T05:40:06.349Z,7.77
2018-09-16T05:42:35.630Z,8.20
2018-09-16T05:45:05.483Z,8.10
2018-09-16T05:47:34.693Z,9.93
2018-09-16T05:50:03.966Z,10.20
2018-09-16T05:52:33.194Z,12.97
2018-09-16T05:55:02.446Z,11.10
2018-09-16T05:57:31.691Z,12.20
2018-09-16T06:00:00.898Z,11.60
2018-09-16T06:02:30.141Z,11.93
2018-09-16T06:04:59.403Z,12.40
2018-09-16T06:07:28.599Z,11.67
2018-09-16T06:09:57.825Z,12.03
2018-09-16T06:12:27.066Z,11.67
2018-09-16T06:14:56.294Z,13.27
2018-09-16T06:17:25.540Z,12.37
2018-09-16T06:19:54.747Z,12.80
2018-09-16T06:22:23.988Z,14.53
2018-09-16T06:24:53.213Z,15.37
2018-09-16T06:27:22.478Z,14.13
2018-09-16T06:29:51.723Z,14.60
2018-09-16T06:32:21.827Z,17.30
2018-09-16T06:34:51.055Z,17.67
2018-09-16T06:37:20.297Z,17.40
2018-09-16T06:39:49.525Z,23.70
2018-09-16T06:42:18.766Z,25.70
2018-09-16T06:44:48.009Z,21.57
2018-09-16T06:47:17.248Z,19.13
2018-09-16T06:49:46.469Z,19.40
2018-09-16T06:52:15.711Z,18.27
2018-09-16T06:54:45.047Z,17.83
2018-09-16T06:57:14.270Z,21.60
2018-09-16T06:59:43.510Z,19.13
2018-09-16T07:02:12.767Z,20.33
2018-09-16T07:04:41.979Z,19.60
2018-09-16T07:07:11.198Z,20.87
2018-09-16T07:09:40.469Z,20.37
2018-09-16T07:12:09.681Z,21.00
2018-09-16T07:14:38.932Z,21.70
2018-09-16T07:17:08.171Z,21.60
2018-09-16T07:19:37.397Z,22.77
2018-09-16T07:22:06.622Z,20.77
2018-09-16T07:24:35.855Z,21.33
2018-09-16T07:27:05.104Z,22.33
2018-09-16T07:29:34.314Z,20.57
2018-09-16T07:32:03.594Z,21.07
2018-09-16T07:34:32.832Z,19.73
2018-09-16T07:37:02.057Z,21.20
2018-09-16T07:39:31.292Z,19.73
2018-09-16T07:42:00.542Z,20.53
2018-09-16T07:44:30.637Z,21.75
2018-09-16T07:46:59.887Z,17.77
2018-09-16T07:49:29.123Z,17.02
2018-09-16T07:51:58.354Z,18.30
2018-09-16T07:54:27.618Z,18.13
2018-09-16T07:56:56.854Z,17.90
2018-09-16T07:59:26.083Z,18.73
2018-09-16T08:02:09.645Z,19.92
2018-09-16T08:04:38.891Z,19.20
2018-09-16T08:07:08.160Z,18.37
2018-09-16T08:09:37.355Z,18.17
2018-09-16T08:12:06.639Z,16.40
2018-09-16T08:14:36.851Z,16.65
2018-09-16T08:17:05.120Z,15.63
2018-09-16T08:19:34.344Z,15.43
2018-09-16T08:22:03.562Z,13.63
2018-09-16T08:24:32.804Z,13.53
2018-09-16T08:27:03.295Z,13.32
2018-09-16T08:29:32.532Z,13.72
2018-09-16T08:32:01.764Z,12.70
2018-09-16T08:34:31.003Z,12.28
2018-09-16T08:37:00.240Z,12.63
2018-09-16T08:39:29.474Z,12.40
2018-09-16T08:41:58.709Z,13.18
2018-09-16T08:44:28.030Z,12.03
2018-09-16T08:46:57.264Z,11.73
2018-09-16T08:49:26.495Z,12.35
2018-09-16T08:51:55.746Z,11.30
2018-09-16T08:54:24.991Z,11.50
2018-09-16T08:56:54.202Z,11.60
2018-09-16T08:59:23.466Z,10.50
2018-09-16T09:01:52.686Z,9.65
2018-09-16T09:04:21.914Z,9.40
2018-09-16T09:06:52.855Z,8.83
2018-09-16T09:09:22.462Z,8.90
2018-09-16T09:11:51.675Z,8.93
2018-09-16T09:14:20.951Z,8.85
2018-09-16T09:16:50.142Z,8.70
2018-09-16T09:19:19.363Z,8.45
2018-09-16T09:21:48.692Z,8.10
2018-09-16T09:24:17.922Z,7.80
2018-09-16T09:26:47.135Z,7.30
2018-09-16T09:29:16.351Z,8.75
2018-09-16T09:31:45.582Z,7.83
2018-09-16T09:34:14.872Z,7.00
2018-09-16T09:36:44.094Z,7.50
2018-09-16T09:39:14.564Z,7.83
2018-09-16T09:41:43.774Z,7.05
2018-09-16T09:44:13.009Z,6.33
2018-09-16T09:46:42.245Z,6.80
2018-09-16T09:49:11.458Z,6.83
2018-09-16T09:51:40.708Z,6.80
2018-09-16T09:54:09.910Z,6.50
2018-09-16T09:56:39.394Z,6.20
2018-09-16T09:59:08.721Z,7.27
2018-09-16T10:01:37.871Z,6.70
2018-09-16T10:04:07.278Z,6.42
2018-09-16T10:06:36.502Z,7.42
2018-09-16T10:09:08.598Z,6.80
2018-09-16T10:11:38.029Z,7.07
2018-09-16T10:14:07.315Z,6.83
2018-09-16T10:16:36.820Z,5.78
2018-09-16T10:19:06.041Z,6.03
2018-09-16T10:21:35.270Z,5.40
2018-09-16T10:24:04.518Z,5.30
2018-09-16T10:26:33.708Z,6.17
2018-09-16T10:29:02.927Z,5.53
2018-09-16T10:31:32.153Z,6.65
2018-09-16T10:34:01.357Z,5.83
2018-09-16T10:36:30.573Z,5.73
2018-09-16T10:38:59.842Z,5.97
2018-09-16T10:41:29.018Z,5.45
2018-09-16T10:43:58.230Z,5.05
2018-09-16T10:46:27.462Z,5.23
2018-09-16T10:48:56.670Z,5.40
2018-09-16T10:51:25.906Z,4.87
2018-09-16T10:53:55.123Z,5.62
2018-09-16T10:56:24.359Z,6.10
2018-09-16T10:58:53.567Z,5.27
2018-09-16T11:01:22.797Z,4.97
2018-09-16T11:03:52.019Z,5.03
2018-09-16T11:06:21.270Z,5.60
2018-09-16T11:08:50.494Z,5.20
2018-09-16T11:11:19.711Z,5.17
2018-09-16T11:13:48.937Z,5.00
2018-09-16T11:16:18.152Z,5.10
2018-09-16T11:18:47.378Z,5.58
2018-09-16T11:21:16.605Z,5.40
2018-09-16T11:23:45.838Z,5.80
2018-09-16T11:26:15.054Z,5.50
2018-09-16T11:28:44.266Z,5.60
2018-09-16T11:31:13.478Z,5.08
2018-09-16T11:33:42.716Z,6.13
2018-09-16T11:36:11.942Z,6.70
2018-09-16T11:38:41.165Z,6.50
2018-09-16T11:41:10.366Z,6.50
2018-09-16T11:43:39.594Z,7.03
2018-09-16T11:46:08.824Z,6.53
2018-09-16T11:48:38.046Z,6.40
2018-09-16T11:51:07.387Z,6.28
2018-09-16T11:53:36.655Z,6.35
2018-09-16T11:56:05.899Z,6.40
2018-09-16T11:58:35.150Z,6.20
2018-09-16T12:01:04.536Z,5.30
2018-09-16T12:03:33.863Z,6.08
2018-09-16T12:06:03.163Z,6.20
2018-09-16T12:08:32.465Z,6.22
2018-09-16T12:11:02.455Z,5.70
2018-09-16T12:13:31.739Z,6.17
2018-09-16T12:16:00.996Z,5.35
2018-09-16T12:18:30.222Z,5.97
2018-09-16T12:20:59.491Z,5.50
2018-09-16T12:23:28.708Z,5.33
2018-09-16T12:25:57.929Z,5.23
2018-09-16T12:28:28.153Z,5.16
2018-09-16T12:30:57.422Z,5.00
2018-09-16T12:33:26.626Z,4.87
2018-09-16T12:35:55.828Z,4.53
2018-09-16T12:38:25.082Z,5.03
2018-09-16T12:40:54.558Z,5.00
2018-09-16T12:43:23.838Z,5.28
2018-09-16T12:45:53.046Z,5.37
2018-09-16T12:48:22.283Z,5.30
2018-09-16T12:50:51.494Z,5.15
2018-09-16T12:53:20.713Z,5.40
2018-09-16T12:55:49.946Z,6.07
2018-09-16T12:58:19.156Z,5.80
2018-09-16T13:00:48.385Z,5.53
2018-09-16T13:03:17.632Z,5.42
2018-09-16T13:05:46.969Z,5.80
2018-09-16T13:08:16.074Z,5.60
2018-09-16T13:10:45.307Z,6.10
2018-09-16T13:13:14.576Z,5.83
2018-09-16T13:15:43.754Z,5.85
2018-09-16T13:18:12.996Z,5.12
2018-09-16T13:20:42.234Z,6.10
2018-09-16T13:23:11.451Z,6.03
2018-09-16T13:25:40.678Z,6.53
2018-09-16T13:28:09.886Z,5.83
2018-09-16T13:30:39.122Z,6.10
2018-09-16T13:33:08.336Z,5.50
2018-09-16T13:35:37.545Z,5.60
2018-09-16T13:38:06.985Z,7.30
2018-09-16T13:40:37.409Z,5.55
2018-09-16T13:43:07.006Z,6.00
2018-09-16T13:45:36.231Z,5.80
2018-09-16T13:48:05.491Z,6.47
2018-09-16T13:50:34.718Z,6.87
2018-09-16T13:53:03.952Z,7.25
2018-09-16T13:55:33.423Z,6.05
2018-09-16T13:58:02.690Z,6.60
2018-09-16T14:00:33.609Z,6.60
2018-09-16T14:03:02.873Z,6.45
2018-09-16T14:05:32.783Z,6.42
2018-09-16T14:08:02.045Z,6.65
2018-09-16T14:10:31.269Z,6.20
2018-09-16T14:13:00.479Z,6.40
2018-09-16T14:15:29.767Z,5.87
2018-09-16T14:17:58.919Z,5.90
2018-09-16T14:20:28.237Z,6.17
2018-09-16T14:22:57.525Z,5.93
2018-09-16T14:25:26.743Z,6.03
2018-09-16T14:27:55.987Z,5.60
2018-09-16T14:30:25.212Z,5.85
2018-09-16T14:32:54.430Z,5.83
2018-09-16T14:35:23.672Z,5.90
2018-09-16T14:37:52.919Z,5.60
2018-09-16T14:40:22.138Z,5.87
2018-09-16T14:42:51.341Z,5.70
2018-09-16T14:45:20.573Z,6.08
2018-09-16T14:47:49.802Z,6.00
2018-09-16T14:50:19.029Z,5.62
2018-09-16T14:52:48.250Z,5.90
2018-09-16T14:55:17.458Z,5.90
2018-09-16T14:57:46.700Z,6.22
2018-09-16T15:00:15.939Z,5.57
2018-09-16T15:02:45.627Z,6.00
2018-09-16T15:05:14.858Z,5.90
2018-09-16T15:07:44.207Z,6.10
2018-09-16T15:10:13.343Z,5.60
2018-09-16T15:12:42.863Z,6.05
2018-09-16T15:15:12.058Z,5.40
2018-09-16T15:17:42.259Z,6.38
2018-09-16T15:20:11.467Z,6.12
2018-09-16T15:22:40.719Z,5.60
2018-09-16T15:25:09.966Z,5.83
2018-09-16T15:27:39.167Z,6.08
2018-09-16T15:30:08.420Z,5.90
2018-09-16T15:32:37.622Z,6.20
2018-09-16T15:35:06.862Z,6.23
2018-09-16T15:37:36.083Z,6.20
2018-09-16T15:40:05.311Z,6.47
2018-09-16T15:42:34.751Z,6.42
2018-09-16T15:45:03.940Z,6.43
2018-09-16T15:47:33.279Z,6.20
2018-09-16T15:50:02.514Z,6.07
2018-09-16T15:52:31.734Z,6.33
2018-09-16T15:55:00.997Z,6.62
2018-09-16T15:57:30.295Z,6.53
2018-09-16T15:59:59.515Z,6.20
2018-09-16T16:02:28.746Z,7.13
2018-09-16T16:04:57.969Z,6.92
2018-09-16T16:07:27.237Z,7.10
2018-09-16T16:09:56.455Z,7.00
2018-09-16T16:12:25.695Z,6.67
2018-09-16T16:14:54.903Z,6.93
2018-09-16T16:17:24.109Z,7.00
2018-09-16T16:19:53.350Z,7.15
2018-09-16T16:22:22.582Z,6.90
2018-09-16T16:24:51.794Z,7.13
2018-09-16T16:27:21.037Z,6.80
2018-09-16T16:29:50.265Z,7.10
2018-09-16T16:32:19.497Z,6.60
2018-09-16T16:34:48.719Z,7.20
2018-09-16T16:37:17.956Z,7.03
2018-09-16T16:39:47.186Z,6.80
2018-09-16T16:42:16.403Z,6.80
2018-09-16T16:44:46.463Z,7.22
2018-09-16T16:47:15.615Z,7.23
2018-09-16T16:49:44.856Z,7.17
2018-09-16T16:52:14.106Z,6.97
2018-09-16T16:54:43.603Z,7.58
2018-09-16T16:57:12.827Z,7.17
2018-09-16T16:59:42.043Z,6.90
2018-09-16T17:02:11.283Z,7.07
2018-09-16T17:04:40.541Z,7.25
2018-09-16T17:07:09.757Z,7.62
2018-09-16T17:09:39.010Z,7.47
2018-09-16T17:12:08.242Z,7.70
2018-09-16T17:14:40.216Z,7.15
2018-09-16T17:17:09.750Z,7.67
2018-09-16T17:19:40.227Z,7.45
2018-09-16T17:22:09.470Z,7.87
2018-09-16T17:24:38.709Z,7.87
2018-09-16T17:27:07.974Z,7.50
2018-09-16T17:29:37.182Z,7.80
2018-09-16T17:32:06.391Z,8.23
2018-09-16T17:34:35.621Z,8.53
2018-09-16T17:37:04.855Z,7.87
2018-09-16T17:39:34.093Z,8.50
2018-09-16T17:42:04.212Z,8.28
2018-09-16T17:44:33.610Z,8.25
2018-09-16T17:47:02.650Z,8.90
2018-09-16T17:49:31.882Z,8.53
2018-09-16T17:52:01.108Z,8.90
2018-09-16T17:54:30.361Z,8.70
2018-09-16T17:56:59.588Z,8.90
2018-09-16T17:59:28.797Z,8.73
2018-09-16T18:01:58.024Z,9.03
2018-09-16T18:04:28.280Z,9.47
2018-09-16T18:06:57.482Z,9.30
2018-09-16T18:09:27.734Z,8.55
2018-09-16T18:11:56.963Z,8.97
2018-09-16T18:14:26.171Z,9.27
2018-09-16T18:16:55.556Z,9.47
2018-09-16T18:19:24.668Z,9.15
2018-09-16T18:21:53.905Z,9.20
2018-09-16T18:24:23.123Z,9.13
2018-09-16T18:26:52.359Z,9.63
2018-09-16T18:29:21.594Z,9.43
2018-09-16T18:31:50.815Z,8.90
2018-09-16T18:34:20.058Z,9.60
2018-09-16T18:36:49.278Z,10.27
2018-09-16T18:39:18.523Z,9.77
2018-09-16T18:41:47.758Z,9.83
2018-09-16T18:44:17.007Z,10.27
2018-09-16T18:46:46.248Z,10.07
2018-09-16T18:49:15.537Z,9.40
2018-09-16T18:51:44.754Z,10.03
2018-09-16T18:54:13.998Z,9.90
2018-09-16T18:56:43.208Z,9.27
2018-09-16T18:59:12.430Z,9.17
2018-09-16T19:01:41.662Z,10.07
2018-09-16T19:04:10.913Z,10.37
2018-09-16T19:06:40.147Z,10.40
2018-09-16T19:09:10.575Z,10.87
2018-09-16T19:11:39.802Z,10.73
2018-09-16T19:14:09.031Z,10.57
2018-09-16T19:16:38.287Z,10.60
2018-09-16T19:19:07.598Z,9.97
2018-09-16T19:21:38.062Z,9.60
2018-09-16T19:24:07.350Z,9.37
2018-09-16T19:26:36.590Z,10.23
2018-09-16T19:29:05.855Z,10.40
2018-09-16T19:31:35.090Z,10.73
2018-09-16T19:34:04.343Z,10.27
2018-09-16T19:36:33.727Z,10.73
2018-09-16T19:39:02.969Z,10.73
2018-09-16T19:41:32.209Z,10.57
2018-09-16T19:44:01.445Z,10.57
2018-09-16T19:46:30.726Z,10.70
2018-09-16T19:48:59.933Z,10.97
2018-09-16T19:51:29.166Z,10.72
2018-09-16T19:53:58.393Z,11.20
2018-09-16T19:56:27.622Z,10.97
2018-09-16T19:58:56.867Z,10.60
2018-09-16T20:01:26.102Z,10.47
2018-09-16T20:03:55.322Z,10.67
2018-09-16T20:06:24.723Z,10.88
2018-09-16T20:08:53.952Z,9.93
2018-09-16T20:11:23.182Z,9.63
2018-09-16T20:13:52.418Z,9.73
2018-09-16T20:16:21.639Z,9.98
2018-09-16T20:18:50.887Z,11.10
2018-09-16T20:21:20.115Z,10.17
2018-09-16T20:23:49.354Z,10.37
2018-09-16T20:26:18.577Z,10.17
2018-09-16T20:28:47.877Z,10.20
2018-09-16T20:31:17.079Z,11.43
2018-09-16T20:33:46.618Z,11.15
2018-09-16T20:36:15.840Z,10.73
2018-09-16T20:38:45.177Z,10.27
2018-09-16T20:41:14.601Z,11.37
2018-09-16T20:43:43.980Z,10.83
2018-09-16T20:46:13.186Z,11.47
2018-09-16T20:48:42.426Z,11.00
2018-09-16T20:51:11.663Z,11.30
2018-09-16T20:53:40.895Z,11.70
2018-09-16T20:56:10.149Z,11.77
2018-09-16T20:58:39.369Z,11.77
2018-09-16T21:01:08.607Z,12.27
2018-09-16T21:03:37.833Z,11.90
2018-09-16T21:06:07.103Z,13.50
2018-09-16T21:08:36.341Z,12.07
2018-09-16T21:11:05.639Z,11.17
2018-09-16T21:13:34.874Z,11.17
2018-09-16T21:16:04.102Z,11.63
2018-09-16T21:18:33.345Z,11.57
2018-09-16T21:21:02.583Z,11.87
2018-09-16T21:23:31.810Z,11.00
2018-09-16T21:26:01.184Z,11.20
2018-09-16T21:28:30.274Z,10.68
2018-09-16T21:30:59.518Z,10.33
2018-09-16T21:33:28.811Z,11.10
2018-09-16T21:35:58.072Z,10.70
2018-09-16T21:38:27.337Z,11.47
2018-09-16T21:40:56.567Z,10.93
2018-09-16T21:43:25.806Z,12.03
2018-09-16T21:45:55.115Z,11.73
2018-09-16T21:48:24.357Z,11.93
2018-09-16T21:50:53.612Z,12.17
2018-09-16T21:53:22.880Z,11.88
2018-09-16T21:55:52.114Z,11.30
2018-09-16T21:58:21.354Z,11.27
2018-09-16T22:00:54.350Z,11.53
2018-09-16T22:03:25.411Z,11.37
2018-09-16T22:05:55.500Z,11.70
2018-09-16T22:08:24.814Z,11.93
2018-09-16T22:10:54.053Z,12.57
2018-09-16T22:13:23.413Z,10.50
2018-09-16T22:15:52.518Z,10.13
2018-09-16T22:18:21.746Z,9.80
2018-09-16T22:20:51.003Z,11.00
2018-09-16T22:23:20.228Z,10.87
2018-09-16T22:25:49.462Z,10.63
2018-09-16T22:28:18.687Z,14.33
2018-09-16T22:30:47.924Z,13.53
2018-09-16T22:33:17.163Z,14.70
2018-09-16T22:35:46.518Z,14.23
2018-09-16T22:38:15.746Z,16.93
2018-09-16T22:40:44.970Z,16.67
2018-09-16T22:43:14.207Z,17.90
2018-09-16T22:45:43.674Z,19.27
2018-09-16T22:48:12.902Z,19.10
2018-09-16T22:50:42.138Z,18.70
2018-09-16T22:53:11.382Z,19.93
2018-09-16T22:55:40.607Z,20.17
2018-09-16T22:58:09.856Z,19.60
2018-09-16T23:00:39.074Z,15.87
2018-09-16T23:03:08.566Z,16.43
2018-09-16T23:05:37.799Z,15.37
2018-09-16T23:08:07.031Z,13.57
2018-09-16T23:10:36.255Z,16.00
2018-09-16T23:13:05.498Z,15.20
2018-09-16T23:15:34.734Z,15.73
2018-09-16T23:18:03.970Z,16.20
2018-09-16T23:20:33.516Z,17.67
2018-09-16T23:23:02.879Z,18.17
2018-09-16T23:25:32.130Z,18.57
2018-09-16T23:28:01.358Z,16.13
2018-09-16T23:30:30.631Z,17.13
2018-09-16T23:32:59.852Z,15.97
2018-09-16T23:35:29.092Z,16.37
2018-09-16T23:37:58.315Z,16.07
2018-09-16T23:40:27.562Z,16.33
2018-09-16T23:42:56.792Z,16.33
2018-09-16T23:45:26.025Z,17.23
2018-09-16T23:47:55.253Z,18.60
2018-09-16T23:50:24.471Z,19.13
2018-09-16T23:52:53.698Z,19.73
2018-09-16T23:55:22.962Z,20.70
2018-09-16T23:57:52.238Z,21.87
